createdAt,value
2017-08-29T00:02:25.875Z,19.00
2017-08-29T00:04:58.408Z,19.00
2017-08-29T00:07:30.145Z,19.00
2017-08-29T00:10:03.063Z,18.90
2017-08-29T00:12:34.126Z,18.90
2017-08-29T00:15:05.616Z,18.90
2017-08-29T00:17:35.924Z,18.90
2017-08-29T00:20:05.608Z,18.90
2017-08-29T00:22:35.698Z,18.90
2017-08-29T00:25:05.378Z,18.90
2017-08-29T00:27:36.575Z,18.90
2017-08-29T00:30:07.768Z,18.90
2017-08-29T00:32:41.140Z,18.80
2017-08-29T00:35:14.099Z,18.80
2017-08-29T00:37:46.226Z,18.80
2017-08-29T00:40:18.003Z,18.70
2017-08-29T00:42:50.357Z,18.70
2017-08-29T00:45:22.022Z,18.70
2017-08-29T00:47:53.438Z,18.70
2017-08-29T00:50:24.442Z,18.70
2017-08-29T00:52:55.928Z,18.60
2017-08-29T00:55:26.034Z,18.60
2017-08-29T00:57:56.241Z,18.60
2017-08-29T01:00:26.959Z,18.60
2017-08-29T01:02:57.057Z,18.60
2017-08-29T01:05:24.825Z,18.60
2017-08-29T01:07:52.564Z,18.50
2017-08-29T01:10:20.350Z,18.50
2017-08-29T01:12:48.144Z,18.50
2017-08-29T01:15:15.916Z,18.40
2017-08-29T01:17:43.654Z,18.40
2017-08-29T01:20:11.596Z,18.40
2017-08-29T01:22:39.375Z,18.40
2017-08-29T01:25:07.154Z,18.40
2017-08-29T01:27:34.930Z,18.40
2017-08-29T01:30:02.728Z,18.40
2017-08-29T01:32:30.502Z,18.40
2017-08-29T01:34:58.305Z,18.30
2017-08-29T01:37:26.099Z,18.30
2017-08-29T01:39:53.900Z,18.30
2017-08-29T01:42:21.684Z,18.20
2017-08-29T01:44:49.465Z,18.20
2017-08-29T01:47:17.246Z,18.20
2017-08-29T01:49:45.043Z,18.10
2017-08-29T01:52:12.826Z,18.10
2017-08-29T01:54:40.611Z,18.10
2017-08-29T01:57:08.388Z,18.00
2017-08-29T01:59:36.179Z,18.00
2017-08-29T02:02:03.930Z,18.00
2017-08-29T02:04:31.716Z,17.90
2017-08-29T02:06:59.504Z,17.90
2017-08-29T02:09:27.276Z,17.90
2017-08-29T02:11:55.056Z,17.80
2017-08-29T02:14:22.820Z,17.80
2017-08-29T02:16:50.543Z,17.80
2017-08-29T02:19:18.269Z,17.80
2017-08-29T02:21:45.986Z,17.80
2017-08-29T02:24:13.696Z,17.90
2017-08-29T02:26:41.414Z,17.90
2017-08-29T02:29:09.126Z,17.90
2017-08-29T02:31:36.846Z,17.90
2017-08-29T02:34:04.559Z,17.90
2017-08-29T02:36:32.343Z,18.00
2017-08-29T02:39:00.066Z,18.00
2017-08-29T02:41:27.782Z,18.00
2017-08-29T02:43:55.494Z,18.10
2017-08-29T02:46:23.215Z,18.10
2017-08-29T02:48:51.011Z,18.20
2017-08-29T02:51:18.733Z,18.20
2017-08-29T02:53:46.454Z,18.20
2017-08-29T02:56:14.175Z,18.20
2017-08-29T02:58:41.889Z,18.20
2017-08-29T03:01:09.610Z,18.20
2017-08-29T03:03:37.348Z,18.30
2017-08-29T03:06:05.067Z,18.30
2017-08-29T03:08:32.783Z,18.30
2017-08-29T03:11:00.504Z,18.20
2017-08-29T03:13:28.246Z,18.30
2017-08-29T03:15:56.026Z,18.30
2017-08-29T03:18:23.764Z,18.30
2017-08-29T03:20:51.489Z,18.30
2017-08-29T03:23:19.208Z,18.30
2017-08-29T03:25:46.922Z,18.20
2017-08-29T03:28:14.635Z,18.20
2017-08-29T03:30:43.144Z,18.30
2017-08-29T03:33:10.858Z,18.30
2017-08-29T03:35:38.579Z,18.30
2017-08-29T03:38:06.291Z,18.30
2017-08-29T03:40:34.005Z,18.30
2017-08-29T03:43:01.734Z,18.30
2017-08-29T03:45:29.454Z,18.40
2017-08-29T03:47:57.201Z,18.40
2017-08-29T03:50:24.926Z,18.40
2017-08-29T03:52:52.651Z,18.40
2017-08-29T03:55:20.370Z,18.50
2017-08-29T03:57:48.087Z,18.50
2017-08-29T04:00:15.866Z,18.50
2017-08-29T04:02:43.582Z,18.50
2017-08-29T04:05:11.299Z,18.50
2017-08-29T04:07:39.013Z,18.50
2017-08-29T04:10:06.751Z,18.50
2017-08-29T04:12:34.500Z,18.40
2017-08-29T04:15:02.251Z,18.30
2017-08-29T04:17:29.990Z,18.30
2017-08-29T04:19:57.702Z,18.30
2017-08-29T04:22:25.438Z,18.30
2017-08-29T04:25:03.458Z,18.20
2017-08-29T04:27:31.203Z,18.20
2017-08-29T04:29:58.979Z,18.20
2017-08-29T04:32:26.711Z,18.10
2017-08-29T04:34:54.439Z,18.10
2017-08-29T04:37:22.179Z,18.10
2017-08-29T04:39:50.839Z,18.10
2017-08-29T04:42:18.578Z,18.10
2017-08-29T04:44:46.314Z,18.10
2017-08-29T04:47:14.040Z,18.00
2017-08-29T04:49:41.767Z,17.90
2017-08-29T04:52:09.535Z,18.00
2017-08-29T04:54:37.322Z,18.00
2017-08-29T04:57:05.071Z,18.00
2017-08-29T04:59:32.835Z,18.00
2017-08-29T05:02:00.667Z,18.00
2017-08-29T05:04:28.451Z,18.00
2017-08-29T05:06:56.203Z,18.00
2017-08-29T05:09:23.979Z,18.00
2017-08-29T05:11:51.747Z,18.00
2017-08-29T05:14:19.471Z,18.00
2017-08-29T05:16:47.204Z,18.00
2017-08-29T05:19:14.929Z,18.00
2017-08-29T05:21:42.656Z,18.10
2017-08-29T05:24:10.381Z,18.30
2017-08-29T05:26:38.104Z,18.40
2017-08-29T05:29:05.828Z,18.50
2017-08-29T05:31:33.550Z,18.50
2017-08-29T05:34:01.290Z,18.60
2017-08-29T05:36:29.031Z,18.60
2017-08-29T05:38:57.357Z,18.70
2017-08-29T05:41:25.095Z,18.70
2017-08-29T05:43:52.836Z,18.70
2017-08-29T05:46:20.566Z,18.70
2017-08-29T05:48:48.299Z,18.80
2017-08-29T05:51:16.056Z,18.80
2017-08-29T05:53:43.807Z,18.90
2017-08-29T05:56:11.595Z,18.90
2017-08-29T05:58:39.325Z,18.90
2017-08-29T06:01:07.097Z,19.00
2017-08-29T06:03:34.858Z,19.00
2017-08-29T06:06:02.609Z,19.10
2017-08-29T06:08:30.400Z,19.20
2017-08-29T06:10:58.191Z,19.30
2017-08-29T06:13:25.922Z,19.50
2017-08-29T06:15:53.670Z,19.80
2017-08-29T06:18:21.472Z,20.20
2017-08-29T06:20:49.222Z,20.50
2017-08-29T06:23:16.950Z,21.00
2017-08-29T06:25:44.683Z,21.60
2017-08-29T06:28:12.411Z,22.60
2017-08-29T06:30:40.138Z,23.50
2017-08-29T06:33:07.882Z,24.30
2017-08-29T06:35:35.603Z,25.10
2017-08-29T06:38:03.346Z,25.80
2017-08-29T06:40:31.065Z,26.70
2017-08-29T06:42:58.787Z,27.90
2017-08-29T06:45:26.540Z,29.10
2017-08-29T06:47:54.264Z,30.30
2017-08-29T06:50:21.974Z,31.20
2017-08-29T06:52:49.704Z,32.20
2017-08-29T06:55:17.442Z,33.20
2017-08-29T06:57:45.171Z,34.20
2017-08-29T07:00:12.899Z,35.10
2017-08-29T07:02:40.650Z,35.80
2017-08-29T07:05:08.383Z,36.50
2017-08-29T07:07:36.167Z,36.90
2017-08-29T07:10:03.914Z,37.60
2017-08-29T07:12:31.716Z,38.40
2017-08-29T07:14:59.507Z,39.00
2017-08-29T07:17:27.250Z,39.60
2017-08-29T07:19:54.989Z,40.20
2017-08-29T07:22:22.715Z,40.60
2017-08-29T07:24:50.491Z,41.10
2017-08-29T07:27:18.247Z,41.40
2017-08-29T07:29:45.991Z,41.40
2017-08-29T07:32:13.714Z,41.10
2017-08-29T07:34:41.458Z,40.50
2017-08-29T07:37:09.183Z,40.00
2017-08-29T07:39:36.919Z,39.30
2017-08-29T07:42:04.648Z,38.70
2017-08-29T07:44:32.386Z,38.00
2017-08-29T07:47:00.136Z,37.20
2017-08-29T07:49:27.969Z,36.50
2017-08-29T07:51:55.707Z,35.80
2017-08-29T07:54:23.470Z,35.10
2017-08-29T07:56:51.207Z,34.40
2017-08-29T07:59:18.948Z,33.60
2017-08-29T08:01:46.687Z,33.20
2017-08-29T08:04:14.424Z,32.70
2017-08-29T08:06:42.154Z,32.30
2017-08-29T08:09:09.907Z,31.80
2017-08-29T08:11:37.658Z,31.50
2017-08-29T08:14:05.395Z,31.40
2017-08-29T08:16:33.172Z,31.20
2017-08-29T08:19:00.916Z,31.10
2017-08-29T08:21:28.643Z,31.10
2017-08-29T08:23:56.380Z,31.10
2017-08-29T08:26:24.100Z,31.20
2017-08-29T08:28:51.890Z,31.20
2017-08-29T08:31:19.618Z,31.20
2017-08-29T08:33:47.369Z,31.20
2017-08-29T08:36:15.160Z,31.30
2017-08-29T08:38:42.888Z,31.30
2017-08-29T08:41:10.619Z,31.40
2017-08-29T08:43:38.347Z,31.60
2017-08-29T08:46:06.089Z,31.70
2017-08-29T08:48:33.816Z,31.80
2017-08-29T08:51:01.589Z,31.90
2017-08-29T08:53:29.334Z,32.00
2017-08-29T08:55:57.071Z,32.20
2017-08-29T08:58:24.838Z,32.40
2017-08-29T09:00:52.576Z,32.50
2017-08-29T09:03:20.391Z,32.50
2017-08-29T09:05:48.131Z,32.50
2017-08-29T09:08:15.854Z,32.60
2017-08-29T09:10:43.577Z,32.60
2017-08-29T09:13:11.306Z,32.70
2017-08-29T09:15:39.047Z,32.80
2017-08-29T09:18:06.783Z,32.90
2017-08-29T09:20:34.523Z,33.00
2017-08-29T09:23:02.261Z,33.10
2017-08-29T09:25:30.010Z,33.30
2017-08-29T09:27:57.731Z,33.40
2017-08-29T09:30:25.473Z,33.40
2017-08-29T09:32:53.211Z,33.60
2017-08-29T09:35:20.939Z,33.80
2017-08-29T09:37:48.684Z,33.90
2017-08-29T09:40:16.414Z,34.00
2017-08-29T09:42:44.159Z,34.20
2017-08-29T09:45:11.886Z,34.20
2017-08-29T09:47:39.619Z,34.30
2017-08-29T09:50:07.344Z,34.50
2017-08-29T09:52:35.075Z,34.60
2017-08-29T09:55:02.855Z,34.80
2017-08-29T09:57:30.598Z,35.00
2017-08-29T09:59:58.354Z,34.90
2017-08-29T10:02:26.118Z,35.10
2017-08-29T10:04:53.862Z,35.00
2017-08-29T10:07:21.629Z,34.80
2017-08-29T10:09:49.362Z,34.70
2017-08-29T10:12:17.103Z,34.90
2017-08-29T10:14:44.835Z,35.10
2017-08-29T10:17:12.583Z,35.20
2017-08-29T10:19:40.307Z,35.40
2017-08-29T10:22:08.045Z,35.60
2017-08-29T10:24:35.775Z,35.70
2017-08-29T10:27:03.532Z,35.70
2017-08-29T10:29:31.267Z,35.80
2017-08-29T10:31:59.067Z,36.10
2017-08-29T10:34:26.897Z,36.20
2017-08-29T10:36:54.667Z,36.30
2017-08-29T10:39:22.394Z,36.50
2017-08-29T10:41:50.136Z,36.70
2017-08-29T10:44:17.881Z,36.80
2017-08-29T10:46:45.617Z,36.90
2017-08-29T10:49:13.354Z,36.90
2017-08-29T10:51:41.080Z,36.90
2017-08-29T10:54:08.819Z,37.10
2017-08-29T10:56:36.558Z,36.80
2017-08-29T10:59:04.306Z,36.90
2017-08-29T11:01:32.072Z,37.00
2017-08-29T11:03:59.799Z,37.20
2017-08-29T11:06:27.560Z,37.20
2017-08-29T11:08:55.307Z,37.30
2017-08-29T11:11:23.071Z,36.30
2017-08-29T11:13:50.817Z,35.80
2017-08-29T11:16:18.559Z,35.40
2017-08-29T11:18:46.285Z,35.70
2017-08-29T11:21:14.042Z,35.60
2017-08-29T11:23:41.791Z,35.60
2017-08-29T11:26:09.569Z,35.60
2017-08-29T11:28:37.335Z,35.80
2017-08-29T11:31:05.141Z,36.00
2017-08-29T11:33:32.927Z,36.00
2017-08-29T11:36:00.714Z,36.20
2017-08-29T11:38:28.499Z,36.40
2017-08-29T11:40:56.282Z,36.60
2017-08-29T11:43:24.110Z,36.90
2017-08-29T11:45:51.890Z,36.80
2017-08-29T11:48:19.672Z,36.70
2017-08-29T11:50:47.462Z,36.50
2017-08-29T11:53:15.276Z,36.30
2017-08-29T11:55:43.071Z,36.50
2017-08-29T11:58:10.839Z,36.80
2017-08-29T12:00:38.617Z,36.90
2017-08-29T12:03:06.385Z,36.30
2017-08-29T12:05:34.180Z,36.40
2017-08-29T12:08:01.951Z,36.80
2017-08-29T12:10:29.718Z,37.10
2017-08-29T12:12:57.454Z,37.20
2017-08-29T12:15:25.193Z,37.20
2017-08-29T12:17:52.942Z,36.90
2017-08-29T12:20:20.710Z,36.50
2017-08-29T12:22:48.434Z,36.60
2017-08-29T12:25:16.164Z,36.80
2017-08-29T12:27:43.890Z,37.00
2017-08-29T12:30:11.622Z,37.10
2017-08-29T12:32:39.355Z,37.30
2017-08-29T12:35:07.099Z,37.60
2017-08-29T12:37:34.835Z,37.50
2017-08-29T12:40:02.581Z,37.60
2017-08-29T12:42:30.311Z,37.80
2017-08-29T12:44:58.095Z,37.90
2017-08-29T12:47:25.868Z,37.60
2017-08-29T12:49:53.595Z,37.60
2017-08-29T12:52:21.319Z,37.60
2017-08-29T12:54:49.091Z,37.70
2017-08-29T12:57:16.807Z,37.80
2017-08-29T12:59:44.542Z,38.00
2017-08-29T13:02:12.258Z,38.10
2017-08-29T13:04:39.978Z,38.20
2017-08-29T13:07:07.706Z,38.30
2017-08-29T13:09:35.432Z,38.40
2017-08-29T13:12:03.208Z,38.50
2017-08-29T13:14:30.994Z,38.30
2017-08-29T13:16:58.712Z,38.20
2017-08-29T13:19:26.441Z,38.20
2017-08-29T13:21:54.203Z,37.60
2017-08-29T13:24:21.967Z,37.60
2017-08-29T13:26:49.707Z,37.60
2017-08-29T13:29:17.464Z,37.60
2017-08-29T13:31:45.196Z,37.10
2017-08-29T13:34:12.934Z,36.90
2017-08-29T13:36:40.662Z,37.10
2017-08-29T13:39:08.383Z,37.50
2017-08-29T13:41:36.107Z,37.70
2017-08-29T13:44:03.846Z,37.40
2017-08-29T13:46:31.570Z,36.90
2017-08-29T13:48:59.291Z,36.40
2017-08-29T13:51:27.020Z,36.30
2017-08-29T13:53:54.743Z,36.40
2017-08-29T13:56:22.470Z,36.60
2017-08-29T13:58:50.204Z,36.80
2017-08-29T14:01:17.946Z,36.90
2017-08-29T14:03:45.674Z,37.00
2017-08-29T14:06:13.436Z,37.10
2017-08-29T14:08:41.185Z,37.20
2017-08-29T14:11:08.994Z,37.30
2017-08-29T14:13:36.722Z,37.30
2017-08-29T14:16:04.450Z,37.20
2017-08-29T14:18:32.170Z,37.00
2017-08-29T14:20:59.910Z,36.60
2017-08-29T14:23:27.647Z,36.20
2017-08-29T14:25:55.385Z,35.90
2017-08-29T14:28:23.137Z,35.80
2017-08-29T14:30:50.872Z,35.90
2017-08-29T14:33:18.595Z,35.80
2017-08-29T14:35:46.327Z,35.90
2017-08-29T14:38:14.061Z,35.80
2017-08-29T14:40:41.799Z,35.50
2017-08-29T14:43:09.538Z,35.50
2017-08-29T14:45:37.279Z,35.40
2017-08-29T14:48:30.798Z,35.20
2017-08-29T14:50:58.554Z,35.10
2017-08-29T14:53:26.283Z,35.10
2017-08-29T14:55:54.015Z,35.30
2017-08-29T14:58:21.743Z,35.30
2017-08-29T15:00:49.480Z,35.30
2017-08-29T15:03:17.231Z,35.20
2017-08-29T15:05:44.962Z,35.20
2017-08-29T15:08:12.702Z,35.20
2017-08-29T15:10:40.426Z,35.20
2017-08-29T15:13:08.158Z,35.30
2017-08-29T15:15:35.933Z,35.10
2017-08-29T15:18:03.669Z,34.80
2017-08-29T15:20:31.400Z,34.60
2017-08-29T15:22:59.131Z,34.60
2017-08-29T15:25:26.865Z,34.70
2017-08-29T15:27:54.607Z,34.70
2017-08-29T15:30:22.351Z,34.40
2017-08-29T15:32:50.089Z,34.20
2017-08-29T15:35:17.818Z,34.20
2017-08-29T15:37:45.561Z,34.20
2017-08-29T15:40:13.292Z,34.20
2017-08-29T15:42:41.022Z,34.20
2017-08-29T15:45:08.760Z,34.00
2017-08-29T15:47:36.482Z,33.60
2017-08-29T15:50:04.239Z,33.40
2017-08-29T15:52:31.995Z,33.30
2017-08-29T15:54:59.755Z,33.40
2017-08-29T15:57:27.486Z,33.30
2017-08-29T15:59:56.111Z,33.30
2017-08-29T16:02:23.851Z,33.40
2017-08-29T16:04:52.350Z,33.60
2017-08-29T16:07:20.095Z,33.50
2017-08-29T16:09:48.264Z,33.50
2017-08-29T16:12:16.094Z,33.60
2017-08-29T16:14:43.822Z,33.60
2017-08-29T16:17:11.560Z,33.60
2017-08-29T16:19:39.303Z,33.60
2017-08-29T16:22:07.038Z,33.60
2017-08-29T16:24:34.811Z,33.60
2017-08-29T16:27:02.575Z,33.60
2017-08-29T16:29:30.335Z,33.60
2017-08-29T16:31:58.123Z,33.40
2017-08-29T16:34:25.876Z,33.10
2017-08-29T16:36:53.611Z,32.80
2017-08-29T16:39:21.351Z,32.60
2017-08-29T16:41:49.078Z,32.50
2017-08-29T16:44:16.811Z,32.20
2017-08-29T16:46:44.539Z,31.80
2017-08-29T16:49:12.274Z,31.20
2017-08-29T16:51:40.006Z,30.80
2017-08-29T16:54:07.742Z,30.50
2017-08-29T16:56:35.482Z,30.30
2017-08-29T16:59:03.232Z,30.10
2017-08-29T17:01:30.972Z,30.20
2017-08-29T17:03:58.710Z,30.20
2017-08-29T17:06:26.459Z,30.00
2017-08-29T17:08:54.202Z,29.80
2017-08-29T17:11:21.976Z,29.50
2017-08-29T17:13:49.727Z,29.40
2017-08-29T17:16:17.463Z,29.50
2017-08-29T17:18:45.203Z,29.50
2017-08-29T17:21:12.926Z,29.60
2017-08-29T17:23:40.658Z,29.60
2017-08-29T17:26:08.405Z,29.60
2017-08-29T17:28:36.139Z,29.50
2017-08-29T17:31:03.873Z,29.50
2017-08-29T17:33:31.610Z,29.50
2017-08-29T17:35:59.348Z,29.40
2017-08-29T17:38:27.096Z,29.30
2017-08-29T17:40:55.595Z,29.20
2017-08-29T17:43:23.330Z,29.20
2017-08-29T17:45:51.063Z,29.10
2017-08-29T17:48:18.814Z,29.00
2017-08-29T17:50:46.551Z,28.80
2017-08-29T17:53:14.279Z,28.70
2017-08-29T17:55:42.015Z,28.60
2017-08-29T17:58:09.760Z,28.40
2017-08-29T18:00:37.544Z,28.30
2017-08-29T18:03:05.294Z,28.20
2017-08-29T18:05:33.067Z,28.10
2017-08-29T18:08:00.797Z,27.90
2017-08-29T18:10:28.526Z,27.80
2017-08-29T18:12:56.262Z,27.70
2017-08-29T18:15:24.046Z,27.60
2017-08-29T18:17:51.786Z,27.40
2017-08-29T18:20:19.550Z,27.30
2017-08-29T18:22:47.283Z,27.10
2017-08-29T18:25:15.018Z,27.00
2017-08-29T18:27:42.760Z,26.90
2017-08-29T18:30:10.503Z,26.80
2017-08-29T18:32:38.251Z,26.60
2017-08-29T18:35:05.996Z,26.50
2017-08-29T18:37:33.738Z,26.40
2017-08-29T18:40:01.466Z,26.30
2017-08-29T18:42:29.264Z,26.10
2017-08-29T18:44:57.002Z,26.00
2017-08-29T18:47:24.770Z,25.90
2017-08-29T18:49:52.504Z,25.90
2017-08-29T18:52:20.236Z,25.80
2017-08-29T18:54:47.986Z,25.80
2017-08-29T18:57:15.707Z,25.70
2017-08-29T18:59:43.487Z,25.60
2017-08-29T19:02:11.222Z,25.50
2017-08-29T19:04:38.948Z,25.40
2017-08-29T19:07:06.688Z,25.30
2017-08-29T19:09:34.552Z,25.30
2017-08-29T19:12:02.282Z,25.20
2017-08-29T19:14:30.043Z,25.20
2017-08-29T19:16:57.791Z,25.10
2017-08-29T19:19:25.530Z,25.10
2017-08-29T19:21:53.375Z,25.00
2017-08-29T19:24:21.242Z,25.00
2017-08-29T19:26:48.959Z,24.90
2017-08-29T19:29:16.817Z,24.80
2017-08-29T19:31:44.595Z,24.70
2017-08-29T19:34:12.334Z,24.70
2017-08-29T19:36:40.067Z,24.60
2017-08-29T19:39:07.807Z,24.50
2017-08-29T19:41:35.556Z,24.50
2017-08-29T19:44:03.315Z,24.50
2017-08-29T19:46:31.056Z,24.40
2017-08-29T19:48:58.784Z,24.30
2017-08-29T19:51:26.547Z,24.30
2017-08-29T19:53:54.266Z,24.20
2017-08-29T19:56:21.992Z,24.10
2017-08-29T19:58:49.720Z,24.10
2017-08-29T20:01:17.438Z,24.00
2017-08-29T20:03:45.167Z,23.90
2017-08-29T20:06:12.941Z,23.90
2017-08-29T20:08:40.675Z,23.90
2017-08-29T20:11:08.405Z,23.80
2017-08-29T20:13:36.132Z,23.80
2017-08-29T20:16:03.883Z,23.70
2017-08-29T20:18:31.598Z,23.70
2017-08-29T20:20:59.327Z,23.70
2017-08-29T20:23:27.082Z,23.60
2017-08-29T20:25:54.797Z,23.60
2017-08-29T20:28:22.563Z,23.50
2017-08-29T20:30:50.310Z,23.50
2017-08-29T20:33:18.033Z,23.40
2017-08-29T20:35:46.070Z,23.40
2017-08-29T20:38:13.794Z,23.40
2017-08-29T20:40:42.271Z,23.30
2017-08-29T20:43:10.032Z,23.30
2017-08-29T20:45:37.760Z,23.30
2017-08-29T20:48:05.495Z,23.20
2017-08-29T20:50:33.221Z,23.10
2017-08-29T20:53:00.946Z,23.10
2017-08-29T20:55:28.675Z,23.00
2017-08-29T20:57:56.415Z,23.00
2017-08-29T21:00:24.153Z,22.90
2017-08-29T21:02:51.890Z,22.90
2017-08-29T21:05:19.619Z,22.80
2017-08-29T21:07:47.371Z,22.80
2017-08-29T21:10:15.107Z,22.80
2017-08-29T21:12:42.850Z,22.80
2017-08-29T21:15:10.578Z,22.70
2017-08-29T21:17:38.298Z,22.70
2017-08-29T21:20:06.039Z,22.70
2017-08-29T21:22:33.753Z,22.60
2017-08-29T21:25:01.484Z,22.60
2017-08-29T21:27:29.216Z,22.60
2017-08-29T21:29:56.949Z,22.60
2017-08-29T21:32:24.697Z,22.50
2017-08-29T21:34:52.548Z,22.50
2017-08-29T21:37:20.302Z,22.50
2017-08-29T21:39:48.032Z,22.50
2017-08-29T21:42:15.809Z,22.40
2017-08-29T21:44:44.991Z,22.40
2017-08-29T21:47:12.750Z,22.40
2017-08-29T21:49:40.493Z,22.30
2017-08-29T21:52:08.223Z,22.30
2017-08-29T21:54:35.959Z,22.20
2017-08-29T21:57:03.679Z,22.20
2017-08-29T21:59:31.410Z,22.20
2017-08-29T22:01:59.164Z,22.10
2017-08-29T22:04:26.894Z,22.00
2017-08-29T22:06:54.614Z,22.00
2017-08-29T22:09:22.343Z,22.00
2017-08-29T22:11:50.093Z,21.90
2017-08-29T22:14:17.907Z,21.90
2017-08-29T22:16:45.647Z,21.80
2017-08-29T22:19:13.603Z,21.80
2017-08-29T22:21:41.335Z,21.80
2017-08-29T22:24:09.074Z,21.70
2017-08-29T22:26:36.797Z,21.70
2017-08-29T22:29:04.528Z,21.70
2017-08-29T22:31:32.265Z,21.70
2017-08-29T22:33:59.990Z,21.60
2017-08-29T22:36:27.727Z,21.70
2017-08-29T22:38:55.450Z,21.60
2017-08-29T22:41:23.215Z,21.60
2017-08-29T22:43:50.947Z,21.50
2017-08-29T22:46:18.707Z,21.50
2017-08-29T22:48:46.427Z,21.50
2017-08-29T22:51:14.172Z,21.50
2017-08-29T22:53:41.899Z,21.40
2017-08-29T22:56:09.668Z,21.40
2017-08-29T22:58:37.395Z,21.40
2017-08-29T23:01:05.199Z,21.40
2017-08-29T23:03:32.950Z,21.30
2017-08-29T23:06:00.722Z,21.30
2017-08-29T23:08:28.482Z,21.30
2017-08-29T23:10:56.267Z,21.30
2017-08-29T23:13:24.014Z,21.30
2017-08-29T23:15:51.751Z,21.30
2017-08-29T23:18:19.491Z,21.30
2017-08-29T23:20:47.232Z,21.20
2017-08-29T23:23:14.975Z,21.20
2017-08-29T23:25:42.724Z,21.20
2017-08-29T23:28:10.483Z,21.20
2017-08-29T23:30:38.233Z,21.20
2017-08-29T23:33:06.022Z,21.10
2017-08-29T23:35:33.758Z,21.10
2017-08-29T23:38:01.503Z,21.10
2017-08-29T23:40:29.270Z,21.10
2017-08-29T23:42:57.002Z,21.00
2017-08-29T23:45:24.743Z,21.00
2017-08-29T23:47:52.504Z,21.00
2017-08-29T23:50:20.290Z,21.00
2017-08-29T23:52:48.027Z,21.00
2017-08-29T23:55:15.766Z,21.00
2017-08-29T23:57:43.490Z,21.00
